createdAt,value
2018-09-17T00:00:26.450Z,4.33
2018-09-17T00:02:54.204Z,3.77
2018-09-17T00:05:21.847Z,3.30
2018-09-17T00:07:49.513Z,4.65
2018-09-17T00:10:17.716Z,3.47
2018-09-17T00:12:46.220Z,3.85
2018-09-17T00:15:13.945Z,3.33
2018-09-17T00:17:42.273Z,6.08
2018-09-17T00:20:10.005Z,4.60
2018-09-17T00:22:37.623Z,3.85
2018-09-17T00:25:05.322Z,4.37
2018-09-17T00:27:32.981Z,4.00
2018-09-17T00:30:00.659Z,3.58
2018-09-17T00:32:28.318Z,4.58
2018-09-17T00:34:56.588Z,5.50
2018-09-17T00:37:24.259Z,5.30
2018-09-17T00:39:52.440Z,4.62
2018-09-17T00:42:20.192Z,5.53
2018-09-17T00:44:48.661Z,5.55
2018-09-17T00:47:16.851Z,6.05
2018-09-17T00:49:45.076Z,5.90
2018-09-17T00:52:12.805Z,5.85
2018-09-17T00:54:40.560Z,6.37
2018-09-17T00:57:08.085Z,6.17
2018-09-17T00:59:35.929Z,5.33
2018-09-17T01:02:03.587Z,5.70
2018-09-17T01:04:31.275Z,5.65
2018-09-17T01:06:58.968Z,5.97
2018-09-17T01:09:32.428Z,5.22
2018-09-17T01:12:00.195Z,6.78
2018-09-17T01:14:28.190Z,7.50
2018-09-17T01:16:55.765Z,6.92
2018-09-17T01:19:23.579Z,6.78
2018-09-17T01:21:51.980Z,6.37
2018-09-17T01:24:19.612Z,6.37
2018-09-17T01:26:47.721Z,8.40
2018-09-17T01:29:15.469Z,7.70
2018-09-17T01:31:43.227Z,7.50
2018-09-17T01:34:10.889Z,6.65
2018-09-17T01:36:38.519Z,7.08
2018-09-17T01:39:08.152Z,7.50
2018-09-17T01:41:35.720Z,7.72
2018-09-17T01:44:03.870Z,7.95
2018-09-17T01:46:31.464Z,6.45
2018-09-17T01:48:59.064Z,8.00
2018-09-17T01:51:26.773Z,7.60
2018-09-17T01:53:54.552Z,7.65
2018-09-17T01:56:22.190Z,8.00
2018-09-17T01:58:50.992Z,8.20
2018-09-17T02:01:18.743Z,8.70
2018-09-17T02:03:46.411Z,7.00
2018-09-17T02:06:14.132Z,7.67
2018-09-17T02:08:42.834Z,8.48
2018-09-17T02:11:10.504Z,8.75
2018-09-17T02:13:38.245Z,7.00
2018-09-17T02:16:06.036Z,6.60
2018-09-17T02:18:33.799Z,7.37
2018-09-17T02:21:01.576Z,7.87
2018-09-17T02:23:29.213Z,7.58
2018-09-17T02:25:56.884Z,8.13
2018-09-17T02:28:24.628Z,7.30
2018-09-17T02:30:52.268Z,8.05
2018-09-17T02:33:20.612Z,7.75
2018-09-17T02:35:48.235Z,8.75
2018-09-17T02:38:15.886Z,7.83
2018-09-17T02:40:44.192Z,7.50
2018-09-17T02:43:11.925Z,8.28
2018-09-17T02:45:39.512Z,8.55
2018-09-17T02:48:07.275Z,9.50
2018-09-17T02:50:35.038Z,7.35
2018-09-17T02:53:03.008Z,7.87
2018-09-17T02:55:30.638Z,8.25
2018-09-17T02:57:59.266Z,6.80
2018-09-17T03:00:26.885Z,8.08
2018-09-17T03:02:56.642Z,8.73
2018-09-17T03:05:25.070Z,8.33
2018-09-17T03:07:53.481Z,7.17
2018-09-17T03:10:21.285Z,8.45
2018-09-17T03:12:49.037Z,8.23
2018-09-17T03:15:27.934Z,8.05
2018-09-17T03:17:56.829Z,7.58
2018-09-17T03:20:24.960Z,7.83
2018-09-17T03:22:52.668Z,8.15
2018-09-17T03:25:20.840Z,8.85
2018-09-17T03:27:49.214Z,8.48
2018-09-17T03:30:17.213Z,9.78
2018-09-17T03:32:44.804Z,9.35
2018-09-17T03:35:12.428Z,7.25
2018-09-17T03:37:40.042Z,7.60
2018-09-17T03:40:09.344Z,9.18
2018-09-17T03:42:37.132Z,8.25
2018-09-17T03:45:04.927Z,9.63
2018-09-17T03:47:32.811Z,8.58
2018-09-17T03:50:00.882Z,7.75
2018-09-17T03:52:28.480Z,8.03
2018-09-17T03:54:56.072Z,8.38
2018-09-17T03:57:23.813Z,7.90
2018-09-17T03:59:51.501Z,7.28
2018-09-17T04:02:19.159Z,7.53
2018-09-17T04:04:46.876Z,8.10
2018-09-17T04:07:15.213Z,8.25
2018-09-17T04:09:44.187Z,8.30
2018-09-17T04:12:12.700Z,7.40
2018-09-17T04:14:40.392Z,8.38
2018-09-17T04:17:08.205Z,8.15
2018-09-17T04:19:36.340Z,7.33
2018-09-17T04:22:04.558Z,7.70
2018-09-17T04:24:32.176Z,7.60
2018-09-17T04:27:06.657Z,7.28
2018-09-17T04:29:34.229Z,7.20
2018-09-17T04:32:02.122Z,8.08
2018-09-17T04:34:29.837Z,8.65
2018-09-17T04:36:57.545Z,8.10
2018-09-17T04:39:26.456Z,8.08
2018-09-17T04:41:54.873Z,8.55
2018-09-17T04:44:22.447Z,8.03
2018-09-17T04:46:50.643Z,6.85
2018-09-17T04:49:18.208Z,8.30
2018-09-17T04:51:45.955Z,7.47
2018-09-17T04:54:14.327Z,8.73
2018-09-17T04:56:42.539Z,8.40
2018-09-17T04:59:10.536Z,7.47
2018-09-17T05:01:38.116Z,8.65
2018-09-17T05:04:05.717Z,7.85
2018-09-17T05:06:33.357Z,7.35
2018-09-17T05:09:00.956Z,8.80
2018-09-17T05:11:28.538Z,8.85
2018-09-17T05:13:56.100Z,8.50
2018-09-17T05:16:23.770Z,7.35
2018-09-17T05:18:51.323Z,7.50
2018-09-17T05:21:19.053Z,8.53
2018-09-17T05:23:46.641Z,7.90
2018-09-17T05:26:14.160Z,8.08
2018-09-17T05:28:42.433Z,7.95
2018-09-17T05:31:10.572Z,9.23
2018-09-17T05:33:38.208Z,7.90
2018-09-17T05:36:05.793Z,9.38
2018-09-17T05:38:33.394Z,11.65
2018-09-17T05:41:01.824Z,11.95
2018-09-17T05:43:30.059Z,9.20
2018-09-17T05:45:57.670Z,8.53
2018-09-17T05:48:25.432Z,8.25
2018-09-17T05:50:53.650Z,9.20
2018-09-17T05:53:21.213Z,11.08
2018-09-17T05:55:48.885Z,10.78
2018-09-17T05:58:16.459Z,9.50
2018-09-17T06:00:44.073Z,10.08
2018-09-17T06:03:12.304Z,10.18
2018-09-17T06:05:40.018Z,10.35
2018-09-17T06:08:08.192Z,11.43
2018-09-17T06:10:35.860Z,11.83
2018-09-17T06:13:03.540Z,12.43
2018-09-17T06:15:31.215Z,12.70
2018-09-17T06:17:58.890Z,11.70
2018-09-17T06:20:27.739Z,12.95
2018-09-17T06:22:56.057Z,12.55
2018-09-17T06:25:23.716Z,13.18
2018-09-17T06:27:51.456Z,13.95
2018-09-17T06:30:19.140Z,14.90
2018-09-17T06:32:46.774Z,15.13
2018-09-17T06:35:14.908Z,13.18
2018-09-17T06:37:42.566Z,14.58
2018-09-17T06:40:10.244Z,13.18
2018-09-17T06:42:38.632Z,14.38
2018-09-17T06:45:06.440Z,12.63
2018-09-17T06:47:34.062Z,13.03
2018-09-17T06:50:01.640Z,13.13
2018-09-17T06:52:29.227Z,14.95
2018-09-17T06:54:56.773Z,14.68
2018-09-17T06:57:24.374Z,14.10
2018-09-17T06:59:52.081Z,15.28
2018-09-17T07:02:20.010Z,14.13
2018-09-17T07:04:47.625Z,14.93
2018-09-17T07:07:15.149Z,15.93
2018-09-17T07:09:42.712Z,16.27
2018-09-17T07:12:10.395Z,14.38
2018-09-17T07:14:38.189Z,16.48
2018-09-17T07:17:06.004Z,15.45
2018-09-17T07:19:33.921Z,14.80
2018-09-17T07:22:01.619Z,16.25
2018-09-17T07:24:29.223Z,14.98
2018-09-17T07:26:56.796Z,14.80
2018-09-17T07:29:24.371Z,15.50
2018-09-17T07:31:52.113Z,14.47
2018-09-17T07:34:20.092Z,14.77
2018-09-17T07:36:48.254Z,15.20
2018-09-17T07:39:15.775Z,15.73
2018-09-17T07:41:43.416Z,14.60
2018-09-17T07:44:11.697Z,13.90
2018-09-17T07:46:39.315Z,15.40
2018-09-17T07:49:06.823Z,14.67
2018-09-17T07:51:34.500Z,14.90
2018-09-17T07:54:02.119Z,15.00
2018-09-17T07:56:29.985Z,14.47
2018-09-17T07:58:58.332Z,15.57
2018-09-17T08:01:26.104Z,15.83
2018-09-17T08:03:53.694Z,14.47
2018-09-17T08:06:21.829Z,14.43
2018-09-17T08:08:49.441Z,15.40
2018-09-17T08:11:17.108Z,12.97
2018-09-17T08:13:44.647Z,15.67
2018-09-17T08:16:12.248Z,14.60
2018-09-17T08:18:40.702Z,14.50
2018-09-17T08:21:08.265Z,15.53
2018-09-17T08:23:35.914Z,14.03
2018-09-17T08:26:03.526Z,15.47
2018-09-17T08:28:31.112Z,13.33
2018-09-17T08:30:58.772Z,13.83
2018-09-17T08:33:26.457Z,12.00
2018-09-17T08:35:54.008Z,14.40
2018-09-17T08:38:21.680Z,11.37
2018-09-17T08:40:49.213Z,13.33
2018-09-17T08:43:16.857Z,16.83
2018-09-17T08:45:44.521Z,12.13
2018-09-17T08:48:12.121Z,13.00
2018-09-17T08:50:39.867Z,12.23
2018-09-17T08:53:07.461Z,13.03
2018-09-17T08:55:41.537Z,11.13
2018-09-17T08:58:14.683Z,12.80
2018-09-17T09:00:47.891Z,13.47
2018-09-17T09:03:21.213Z,12.67
2018-09-17T09:06:01.064Z,13.40
2018-09-17T09:08:29.269Z,12.63
2018-09-17T09:11:02.564Z,12.67
2018-09-17T09:13:33.684Z,12.50
2018-09-17T09:16:01.388Z,11.00
2018-09-17T09:18:29.504Z,12.33
2018-09-17T09:20:57.183Z,12.70
2018-09-17T09:23:24.892Z,10.90
2018-09-17T09:25:52.508Z,11.43
2018-09-17T09:28:20.146Z,10.80
2018-09-17T09:30:48.488Z,13.30
2018-09-17T09:33:16.034Z,11.10
2018-09-17T09:35:43.641Z,11.83
2018-09-17T09:38:11.448Z,11.23
2018-09-17T09:40:39.132Z,12.10
2018-09-17T09:43:07.472Z,11.40
2018-09-17T09:45:35.306Z,12.80
2018-09-17T09:48:03.087Z,10.20
2018-09-17T09:50:31.156Z,9.17
2018-09-17T09:52:58.869Z,8.97
2018-09-17T09:55:26.388Z,9.63
2018-09-17T09:57:54.022Z,10.03
2018-09-17T10:00:27.354Z,9.27
2018-09-17T10:03:02.511Z,11.03
2018-09-17T10:05:30.076Z,8.43
2018-09-17T10:07:57.670Z,10.20
2018-09-17T10:10:30.781Z,7.93
2018-09-17T10:13:04.367Z,8.30
2018-09-17T10:15:39.477Z,8.43
2018-09-17T10:18:12.915Z,11.60
2018-09-17T10:20:40.828Z,12.63
2018-09-17T10:23:08.553Z,7.20
2018-09-17T10:25:36.120Z,11.33
2018-09-17T10:28:03.740Z,12.30
2018-09-17T10:30:31.356Z,11.53
2018-09-17T10:32:59.058Z,10.10
2018-09-17T10:35:26.649Z,7.47
2018-09-17T10:37:55.832Z,7.70
2018-09-17T10:40:23.593Z,8.37
2018-09-17T10:42:51.156Z,10.60
2018-09-17T10:45:19.009Z,6.53
2018-09-17T10:47:46.749Z,7.10
2018-09-17T10:50:14.548Z,7.60
2018-09-17T10:52:43.237Z,7.13
2018-09-17T10:55:11.073Z,6.63
2018-09-17T10:57:39.881Z,9.93
2018-09-17T11:00:07.518Z,5.50
2018-09-17T11:02:35.120Z,5.70
2018-09-17T11:05:03.272Z,5.33
2018-09-17T11:07:31.064Z,6.60
2018-09-17T11:09:59.156Z,10.80
2018-09-17T11:12:27.121Z,7.10
2018-09-17T11:14:54.945Z,4.80
2018-09-17T11:17:22.596Z,5.57
2018-09-17T11:19:50.320Z,4.90
2018-09-17T11:22:17.931Z,5.37
2018-09-17T11:24:45.826Z,4.50
2018-09-17T11:27:14.089Z,5.03
2018-09-17T11:29:43.218Z,4.60
2018-09-17T11:32:10.843Z,3.80
2018-09-17T11:37:13.024Z,3.97
2018-09-17T11:39:40.992Z,3.03
2018-09-17T11:42:08.537Z,3.80
2018-09-17T11:44:36.098Z,3.63
2018-09-17T11:47:03.914Z,2.67
2018-09-17T11:49:31.725Z,3.13
2018-09-17T11:51:59.328Z,2.87
2018-09-17T11:54:26.976Z,2.80
2018-09-17T11:56:55.196Z,2.50
2018-09-17T11:59:23.287Z,2.50
2018-09-17T12:01:56.542Z,2.83
2018-09-17T12:04:29.664Z,2.90
2018-09-17T12:07:03.003Z,3.43
2018-09-17T12:09:30.550Z,3.73
2018-09-17T12:11:58.215Z,3.97
2018-09-17T12:14:25.795Z,3.70
2018-09-17T12:16:53.266Z,3.73
2018-09-17T12:19:20.826Z,3.17
2018-09-17T12:21:48.570Z,3.77
2018-09-17T12:24:16.264Z,4.33
2018-09-17T12:26:44.216Z,4.57
2018-09-17T12:29:11.805Z,3.20
2018-09-17T12:31:39.398Z,2.67
2018-09-17T12:34:07.051Z,3.60
2018-09-17T12:36:34.933Z,3.60
2018-09-17T12:39:02.904Z,2.57
2018-09-17T12:41:30.447Z,2.87
2018-09-17T12:43:58.176Z,2.30
2018-09-17T12:46:25.858Z,5.90
2018-09-17T12:48:53.495Z,3.40
2018-09-17T12:51:21.357Z,3.43
2018-09-17T12:53:49.149Z,2.80
2018-09-17T12:56:16.739Z,3.37
2018-09-17T12:58:44.318Z,3.00
2018-09-17T13:01:11.863Z,4.20
2018-09-17T13:03:40.067Z,3.10
2018-09-17T13:06:08.344Z,3.77
2018-09-17T13:08:36.063Z,3.00
2018-09-17T13:11:03.684Z,2.60
2018-09-17T13:13:31.243Z,3.10
2018-09-17T13:15:58.936Z,3.43
2018-09-17T13:18:26.445Z,3.83
2018-09-17T13:20:54.541Z,2.70
2018-09-17T13:23:22.073Z,2.80
2018-09-17T13:25:50.085Z,3.07
2018-09-17T13:28:17.722Z,2.53
2018-09-17T13:30:45.574Z,2.90
2018-09-17T13:33:13.586Z,3.20
2018-09-17T13:35:41.135Z,3.07
2018-09-17T13:38:08.744Z,3.63
2018-09-17T13:40:36.287Z,2.70
2018-09-17T13:43:04.058Z,2.70
2018-09-17T13:45:31.699Z,4.50
2018-09-17T13:47:59.352Z,2.80
2018-09-17T13:50:26.959Z,3.20
2018-09-17T13:52:54.779Z,4.33
2018-09-17T13:55:22.341Z,2.33
2018-09-17T13:57:49.881Z,2.53
2018-09-17T14:00:17.474Z,2.80
2018-09-17T14:02:45.031Z,3.00
2018-09-17T14:05:12.705Z,2.87
2018-09-17T14:07:40.380Z,2.93
2018-09-17T14:10:08.365Z,2.70
2018-09-17T14:12:36.501Z,3.33
2018-09-17T14:15:04.436Z,3.00
2018-09-17T14:17:32.078Z,2.67
2018-09-17T14:19:59.727Z,2.70
2018-09-17T14:22:27.346Z,2.70
2018-09-17T14:24:55.557Z,2.80
2018-09-17T14:27:23.189Z,2.63
2018-09-17T14:29:51.526Z,3.50
2018-09-17T14:32:24.669Z,3.03
2018-09-17T14:34:52.294Z,2.97
2018-09-17T14:37:19.898Z,3.00
2018-09-17T14:39:47.523Z,3.57
2018-09-17T14:42:15.988Z,2.37
2018-09-17T14:44:43.662Z,2.80
2018-09-17T14:47:11.559Z,2.90
2018-09-17T14:49:39.194Z,2.30
2018-09-17T14:52:06.892Z,3.00
2018-09-17T14:54:34.681Z,2.77
2018-09-17T14:57:02.401Z,2.50
2018-09-17T14:59:30.105Z,4.63
2018-09-17T15:01:58.136Z,2.53
2018-09-17T15:04:25.731Z,2.83
2018-09-17T15:06:53.229Z,2.70
2018-09-17T15:09:20.911Z,2.57
2018-09-17T15:11:48.486Z,3.33
2018-09-17T15:14:16.384Z,3.10
2018-09-17T15:16:44.030Z,2.33
2018-09-17T15:19:11.623Z,2.70
2018-09-17T15:21:39.841Z,2.80
2018-09-17T15:24:08.325Z,2.40
2018-09-17T15:26:35.934Z,2.63
2018-09-17T15:29:03.686Z,2.30
2018-09-17T15:31:31.266Z,4.50
2018-09-17T15:33:58.783Z,2.73
2018-09-17T15:36:26.966Z,2.80
2018-09-17T15:38:54.503Z,3.13
2018-09-17T15:41:22.448Z,2.47
2018-09-17T15:43:50.772Z,2.20
2018-09-17T15:46:18.511Z,2.80
2018-09-17T15:48:46.421Z,2.70
2018-09-17T15:51:13.938Z,2.47
2018-09-17T15:53:41.476Z,4.90
2018-09-17T15:56:09.250Z,2.33
2018-09-17T15:58:36.948Z,2.13
2018-09-17T16:01:05.637Z,2.93
2018-09-17T16:03:33.235Z,1.97
2018-09-17T16:06:00.853Z,2.53
2018-09-17T16:08:28.552Z,2.37
2018-09-17T16:10:56.070Z,3.10
2018-09-17T16:13:23.630Z,1.50
2018-09-17T16:15:51.262Z,1.93
2018-09-17T16:18:19.086Z,2.03
2018-09-17T16:20:46.930Z,2.57
2018-09-17T16:23:15.065Z,1.60
2018-09-17T16:25:43.685Z,1.57
2018-09-17T16:28:11.410Z,2.27
2018-09-17T16:30:39.336Z,2.47
2018-09-17T16:33:07.013Z,2.23
2018-09-17T16:35:34.925Z,2.33
2018-09-17T16:38:02.476Z,2.30
2018-09-17T16:40:30.477Z,2.20
2018-09-17T16:42:58.652Z,1.83
2018-09-17T16:45:26.211Z,4.87
2018-09-17T16:47:53.790Z,2.13
2018-09-17T16:50:21.446Z,2.37
2018-09-17T16:52:49.057Z,2.93
2018-09-17T16:55:16.620Z,2.40
2018-09-17T16:57:44.222Z,3.13
2018-09-17T17:00:12.050Z,2.47
2018-09-17T17:02:39.774Z,3.00
2018-09-17T17:05:08.212Z,2.67
2018-09-17T17:07:35.939Z,2.40
2018-09-17T17:10:03.744Z,2.80
2018-09-17T17:12:31.394Z,2.43
2018-09-17T17:14:59.087Z,2.97
2018-09-17T17:17:26.916Z,2.93
2018-09-17T17:19:55.284Z,3.17
2018-09-17T17:22:23.028Z,3.23
2018-09-17T17:24:50.962Z,2.73
2018-09-17T17:27:19.496Z,5.50
2018-09-17T17:29:47.464Z,4.37
2018-09-17T17:32:15.113Z,4.60
2018-09-17T17:34:43.607Z,2.60
2018-09-17T17:37:11.579Z,2.47
2018-09-17T17:39:39.439Z,3.30
2018-09-17T17:42:08.522Z,3.30
2018-09-17T17:44:36.592Z,4.80
2018-09-17T17:47:05.158Z,4.90
2018-09-17T17:49:34.556Z,4.10
2018-09-17T17:52:02.419Z,3.17
2018-09-17T17:54:30.349Z,4.40
2018-09-17T17:56:58.081Z,3.70
2018-09-17T17:59:25.797Z,3.70
2018-09-17T18:01:54.049Z,3.07
2018-09-17T18:04:27.146Z,3.50
2018-09-17T18:06:54.950Z,3.93
2018-09-17T18:09:23.200Z,2.97
2018-09-17T18:11:51.681Z,2.50
2018-09-17T18:14:19.827Z,2.53
2018-09-17T18:16:47.677Z,2.70
2018-09-17T18:19:16.620Z,3.27
2018-09-17T18:21:44.665Z,2.30
2018-09-17T18:24:12.363Z,2.57
2018-09-17T18:26:40.523Z,3.27
2018-09-17T18:29:08.900Z,2.37
2018-09-17T18:31:36.941Z,2.30
2018-09-17T18:34:05.523Z,2.20
2018-09-17T18:36:33.623Z,2.80
2018-09-17T18:39:01.711Z,5.33
2018-09-17T18:41:29.547Z,2.03
2018-09-17T18:43:57.476Z,2.23
2018-09-17T18:46:26.125Z,2.37
2018-09-17T18:48:54.696Z,2.27
2018-09-17T18:51:22.439Z,1.67
2018-09-17T18:53:50.168Z,1.90
2018-09-17T18:56:18.084Z,2.30
2018-09-17T18:58:46.551Z,2.40
2018-09-17T19:01:14.286Z,2.10
2018-09-17T19:03:47.432Z,1.97
2018-09-17T19:06:15.235Z,2.57
2018-09-17T19:08:42.937Z,1.77
2018-09-17T19:11:10.623Z,5.70
2018-09-17T19:13:38.766Z,2.23
2018-09-17T19:16:06.912Z,2.07
2018-09-17T19:18:34.653Z,1.90
2018-09-17T19:21:02.817Z,2.47
2018-09-17T19:23:36.011Z,1.93
2018-09-17T19:26:04.606Z,2.00
2018-09-17T19:28:37.938Z,2.40
2018-09-17T19:31:06.074Z,2.20
2018-09-17T19:33:33.962Z,2.47
2018-09-17T19:36:02.026Z,2.30
2018-09-17T19:38:35.643Z,1.90
2018-09-17T19:41:03.786Z,3.50
2018-09-17T19:43:31.671Z,2.20
2018-09-17T19:46:05.248Z,2.60
2018-09-17T19:48:33.134Z,2.83
2018-09-17T19:51:06.393Z,1.80
2018-09-17T19:53:34.389Z,2.70
2018-09-17T19:56:02.436Z,2.30
2018-09-17T19:58:36.058Z,2.40
2018-09-17T20:01:03.796Z,2.53
2018-09-17T20:03:32.772Z,2.33
2018-09-17T20:06:06.169Z,4.17
2018-09-17T20:08:34.494Z,2.80
2018-09-17T20:11:02.196Z,7.23
2018-09-17T20:13:30.108Z,3.40
2018-09-17T20:15:59.822Z,4.10
2018-09-17T20:18:28.565Z,3.77
2018-09-17T20:20:56.431Z,3.37
2018-09-17T20:23:24.123Z,3.40
2018-09-17T20:25:52.424Z,3.60
2018-09-17T20:28:20.446Z,3.43
2018-09-17T20:30:48.218Z,3.20
2018-09-17T20:33:16.018Z,3.60
2018-09-17T20:35:43.958Z,15.87
2018-09-17T20:38:11.629Z,3.43
2018-09-17T20:40:39.497Z,4.20
2018-09-17T20:43:07.128Z,3.40
2018-09-17T20:45:35.518Z,3.40
2018-09-17T20:48:03.166Z,3.47
2018-09-17T20:50:30.854Z,3.20
2018-09-17T20:52:58.544Z,3.00
2018-09-17T20:55:26.395Z,3.00
2018-09-17T20:57:53.968Z,3.53
2018-09-17T21:00:21.958Z,4.43
2018-09-17T21:02:50.393Z,3.20
2018-09-17T21:05:18.169Z,3.47
2018-09-17T21:07:45.961Z,3.63
2018-09-17T21:10:13.775Z,4.47
2018-09-17T21:12:41.478Z,4.03
2018-09-17T21:15:09.150Z,3.03
2018-09-17T21:17:36.993Z,6.10
2018-09-17T21:20:04.764Z,3.17
2018-09-17T21:22:32.809Z,3.40
2018-09-17T21:25:00.611Z,3.67
2018-09-17T21:27:28.384Z,4.23
2018-09-17T21:29:56.040Z,2.83
2018-09-17T21:32:23.722Z,3.27
2018-09-17T21:34:52.110Z,3.40
2018-09-17T21:37:19.903Z,4.00
2018-09-17T21:39:47.702Z,3.70
2018-09-17T21:42:15.610Z,4.10
2018-09-17T21:44:43.281Z,3.50
2018-09-17T21:47:10.976Z,3.30
2018-09-17T21:49:38.616Z,3.77
2018-09-17T21:52:06.314Z,3.90
2018-09-17T21:54:34.648Z,3.30
2018-09-17T21:57:02.373Z,2.63
2018-09-17T21:59:30.006Z,2.60
2018-09-17T22:01:57.734Z,3.43
2018-09-17T22:04:25.654Z,4.27
2018-09-17T22:06:53.948Z,3.17
2018-09-17T22:09:21.825Z,2.90
2018-09-17T22:11:49.562Z,4.67
2018-09-17T22:14:17.350Z,2.90
2018-09-17T22:16:45.034Z,3.07
2018-09-17T22:19:13.098Z,3.00
2018-09-17T22:21:40.780Z,3.57
2018-09-17T22:24:08.421Z,3.33
2018-09-17T22:26:37.008Z,3.57
2018-09-17T22:29:04.795Z,2.87
2018-09-17T22:31:32.493Z,3.17
2018-09-17T22:34:00.165Z,3.03
2018-09-17T22:36:28.687Z,2.77
2018-09-17T22:38:56.439Z,2.90
2018-09-17T22:41:24.159Z,2.97
2018-09-17T22:43:51.885Z,3.00
2018-09-17T22:46:19.635Z,2.87
2018-09-17T22:48:47.272Z,3.53
2018-09-17T22:51:15.016Z,3.33
2018-09-17T22:53:42.736Z,5.50
2018-09-17T22:56:10.431Z,4.87
2018-09-17T22:58:38.513Z,2.97
2018-09-17T23:01:06.392Z,3.00
2018-09-17T23:03:34.201Z,3.77
2018-09-17T23:06:01.924Z,4.53
2018-09-17T23:08:29.561Z,2.77
2018-09-17T23:10:57.234Z,3.40
2018-09-17T23:13:24.924Z,3.40
2018-09-17T23:15:52.510Z,3.20
2018-09-17T23:18:20.044Z,3.97
2018-09-17T23:20:47.725Z,3.23
2018-09-17T23:23:15.434Z,3.47
2018-09-17T23:25:43.528Z,3.20
2018-09-17T23:28:11.152Z,3.17
2018-09-17T23:30:38.992Z,2.73
2018-09-17T23:33:07.359Z,3.00
2018-09-17T23:35:35.020Z,4.07
2018-09-17T23:38:02.598Z,4.50
2018-09-17T23:40:30.163Z,4.07
2018-09-17T23:42:57.760Z,3.97
2018-09-17T23:45:25.302Z,3.70
2018-09-17T23:47:52.920Z,3.50
2018-09-17T23:50:20.483Z,6.07
2018-09-17T23:52:48.109Z,4.33
2018-09-17T23:55:15.713Z,6.73
2018-09-17T23:57:44.045Z,6.13
